This is the latest recevied weather packets stored in our database for station/object W2BP-13. If no packets are shown the sender has not sent any weather packets the latest 10 day(s).
| Time | Temp. | Humidity | Pressure | Rain* | Wind** | Luminosity | Snow |
|---|---|---|---|---|---|---|---|
| 1778271933 | 22.78° C | 16% | 1019.2 hPa | 0 mm | - | - | - |
| 1778271033 | 22.22° C | 17% | 1019.1 hPa | 0 mm | - | - | - |
| 1778270133 | 22.78° C | 17% | 1019.3 hPa | 0 mm | - | - | - |
| 1778269232 | 22.78° C | 18% | 1019.1 hPa | 0 mm | - | - | - |
| 1778268333 | 24.44° C | 18% | 1019.1 hPa | 0 mm | - | - | - |
| 1778267433 | 22.78° C | 22% | 1019.3 hPa | 0 mm | - | - | - |
| 1778266532 | 23.89° C | 21% | 1019.4 hPa | 0 mm | - | - | - |
| 1778265633 | 22.78° C | 24% | 1019.6 hPa | 0 mm | - | - | - |
| 1778264732 | 23.33° C | 24% | 1019.8 hPa | 0 mm | - | - | - |
| 1778263833 | 22.78° C | 24% | 1019.6 hPa | 0 mm | - | - | - |
| 1778262933 | 21.67° C | 30% | 1019.8 hPa | 0 mm | - | - | - |
| 1778262033 | 20° C | 33% | 1020 hPa | 0 mm | - | - | - |
| 1778261132 | 19.44° C | 40% | 1019.9 hPa | 0 mm | - | - | - |
| 1778260232 | 18.33° C | 44% | 1019.8 hPa | 0 mm | - | - | - |
| 1778259332 | 18.89° C | 44% | 1019.8 hPa | 0 mm | - | - | - |
| 1778258433 | 19.44° C | 43% | 1019.7 hPa | 0 mm | - | - | - |
| 1778257533 | 19.44° C | 44% | 1019.7 hPa | 0 mm | - | - | - |
| 1778256633 | 17.78° C | 47% | 1019.7 hPa | 0 mm | - | - | - |
| 1778255733 | 17.78° C | 47% | 1019.4 hPa | 0 mm | - | - | - |
| 1778254833 | 17.78° C | 46% | 1019.3 hPa | 0 mm | - | - | - |
| 1778253933 | 17.78° C | 47% | 1019.4 hPa | 0 mm | - | - | - |
| 1778253032 | 17.22° C | 50% | 1019.1 hPa | 0 mm | - | - | - |
| 1778252132 | 16.67° C | 50% | 1018.9 hPa | 0 mm | - | - | - |
| 1778251233 | 15.56° C | 51% | 1019.2 hPa | 0 mm | - | - | - |
| 1778250333 | 14.44° C | 56% | 1019.1 hPa | 0 mm | - | - | - |
* Rain latest hour (hover to see other rain measurements)
** Current wind speed in m/s (hover to see current wind gust speed)